Flugplatz Neuburg-Egweil (EDNJ)

Hier findest Du alle Informationen zum Flugplatz Neuburg-Egweil (EDNJ).

Informationen für Piloten zum Flugplatz Neuburg-Egweil

Hier findest Du alle relevanten Informationen, die Du als Pilot benötigst, um Neuburg-Egweil anzufliegen.

Flugplatz: Neuburg-Egweil ICAO-Code: EDNJ
Frequenz Turm: 123,475 Mhz GAFOR Gebiet: 73
Frequenz Ground: 123,475 Mhz Mogas: nein
Platzrunde: N 2200 ft Landegebühr: -
Platzhöhe: - Sunrise: 06:47 Uhr UTC
Pisten: 08/26 - 558 m x 30 m, GRAS Sunset: 15:22 Uhr UTC

Mitglieder, die in Neuburg-Egweil fliegen

Flugwetter am Flugplatz Neuburg-Egweil

Die METAR Information stammen aus EDMA (44.99 km entfernt).

METAR Code:
2022/11/15 11:50
EDMA 151150Z VRB02KT CAVOK 12/05 Q1011

Temperatur: 1,0 °C Niederschlag: - Wind: 6,0 kt
Temperatur (min.): 0,4 °C Luftdruck: 1018 hPa Windrichtung: 80 °
Temperatur (max.): 1,5 °C Luftfeuchtigkeit: 82 % Bewölkung: 8/8

Flugschulen am Flugplatz Neuburg-Egweil

Am Flugplatz Neuburg-Egweil gibt es leider keine Flugschule.

Benachbarte Flugplätze und Flugschulen

Es gibt 15 weitere Flugplätze in einem Umkreis von 50 km um den Flugplatz Neuburg-Egweil.

Jetzt anmelden

Passwort vergessen

Umfrage Archiv

Sendet Ihr ADS-B und/oder FLARM?

Ja
84.6 %
Nein
15.4 %
Stimmen: 254 | Diskussion
Anzeige: Roland Aircraft
Statistik Alle Mitglieder

Aktuell sind 51 Besucher online, davon 2 Mitglieder und 49 Gäste.


Mitglieder online:
Bello  ronnski 

Anzeige: ULPower Aero Engines Anzeige: EasyVFR